createdAt,value
2023-02-24T00:00:32.099Z,17.60
2023-02-24T00:05:35.635Z,20.20
2023-02-24T00:10:37.598Z,18.50
2023-02-24T00:15:39.533Z,16.20
2023-02-24T00:20:41.236Z,17.80
2023-02-24T00:25:42.956Z,18.80
2023-02-24T00:30:46.424Z,17.40
2023-02-24T00:35:48.135Z,10.40
2023-02-24T00:40:49.917Z,16.70
2023-02-24T00:45:51.677Z,16.40
2023-02-24T00:50:55.815Z,16.80
2023-02-24T00:56:01.773Z,16.70
2023-02-24T01:01:04.882Z,17.00
2023-02-24T01:06:07.658Z,17.60
2023-02-24T01:11:28.607Z,17.60
2023-02-24T01:16:30.317Z,14.90
2023-02-24T01:21:32.136Z,16.70
2023-02-24T01:26:33.845Z,18.60
2023-02-24T01:31:38.717Z,16.40
2023-02-24T01:36:45.084Z,16.10
2023-02-24T01:41:49.909Z,17.10
2023-02-24T01:46:53.382Z,16.60
2023-02-24T01:52:02.120Z,16.60
2023-02-24T01:57:05.967Z,15.30
2023-02-24T02:02:09.692Z,15.60
2023-02-24T02:07:15.747Z,14.80
2023-02-24T02:12:17.568Z,17.50
2023-02-24T02:17:47.477Z,15.40
2023-02-24T02:23:07.563Z,15.30
2023-02-24T02:28:32.745Z,14.10
2023-02-24T02:34:00.013Z,16.30
2023-02-24T02:39:17.953Z,15.40
2023-02-24T02:44:27.501Z,15.60
2023-02-24T02:49:36.359Z,15.30
2023-02-24T02:54:49.940Z,17.90
2023-02-24T03:00:01.465Z,16.50
2023-02-24T03:05:09.438Z,17.50
2023-02-24T03:10:20.953Z,16.50
2023-02-24T03:20:32.888Z,18.20
2023-02-24T03:26:16.949Z,20.20
2023-02-24T03:31:27.853Z,19.80
2023-02-24T03:36:30.738Z,19.70
2023-02-24T03:41:57.804Z,18.70
2023-02-24T03:47:10.916Z,19.50
2023-02-24T03:52:39.059Z,22.20
2023-02-24T03:58:18.475Z,23.90
2023-02-24T04:03:57.706Z,23.30
2023-02-24T04:09:27.734Z,23.20
2023-02-24T04:15:08.697Z,25.20
2023-02-24T04:20:17.100Z,25.20
2023-02-24T04:25:27.069Z,26.20
2023-02-24T04:30:34.372Z,26.20
2023-02-24T04:35:37.908Z,54.50
2023-02-24T04:40:40.910Z,28.60
2023-02-24T04:45:42.879Z,34.20
2023-02-24T04:50:44.754Z,32.60
2023-02-24T04:55:48.999Z,33.40
2023-02-24T05:06:23.770Z,29.90
2023-02-24T05:11:25.562Z,27.10
2023-02-24T05:16:28.968Z,27.50
2023-02-24T05:21:36.955Z,29.80
2023-02-24T05:26:41.802Z,23.70
2023-02-24T05:31:44.135Z,29.30
2023-02-24T05:36:47.074Z,29.60
2023-02-24T05:41:49.976Z,27.70
2023-02-24T05:47:00.858Z,33.90
2023-02-24T05:52:07.791Z,33.90
2023-02-24T05:57:13.106Z,31.60
2023-02-24T06:02:17.616Z,32.40
2023-02-24T06:07:24.848Z,32.40
2023-02-24T06:12:31.942Z,30.80
2023-02-24T06:17:33.826Z,36.30
2023-02-24T06:22:42.593Z,34.20
2023-02-24T06:27:45.017Z,36.10
2023-02-24T06:32:46.914Z,38.40
2023-02-24T06:37:48.799Z,35.70
2023-02-24T06:42:55.252Z,46.70
2023-02-24T06:47:58.063Z,38.20
2023-02-24T06:53:00.954Z,38.20
2023-02-24T06:58:05.898Z,40.90
2023-02-24T07:03:15.844Z,38.90
2023-02-24T07:08:23.171Z,44.80
2023-02-24T07:13:28.541Z,39.10
2023-02-24T07:18:31.012Z,33.10
2023-02-24T07:23:32.792Z,38.30
2023-02-24T07:28:34.567Z,43.10
2023-02-24T07:33:37.275Z,34.50
2023-02-24T07:38:39.480Z,38.20
2023-02-24T07:43:43.936Z,36.90
2023-02-24T07:48:46.548Z,35.00
2023-02-24T07:53:54.181Z,33.20
2023-02-24T07:59:01.960Z,35.70
2023-02-24T08:04:08.290Z,33.30
2023-02-24T08:09:20.635Z,37.80
2023-02-24T08:14:25.524Z,33.50
2023-02-24T08:19:47.628Z,36.60
2023-02-24T08:25:00.719Z,33.30
2023-02-24T08:30:02.959Z,35.00
2023-02-24T08:35:14.596Z,37.10
2023-02-24T08:45:34.855Z,37.00
2023-02-24T08:50:39.490Z,38.10
2023-02-24T08:55:42.842Z,36.80
2023-02-24T09:00:53.400Z,41.50
2023-02-24T09:05:58.001Z,39.70
2023-02-24T09:11:02.009Z,41.90
2023-02-24T09:16:05.198Z,44.70
2023-02-24T09:21:30.872Z,43.30
2023-02-24T09:26:43.519Z,38.00
2023-02-24T09:31:55.347Z,37.90
2023-02-24T09:37:03.727Z,34.20
2023-02-24T09:42:13.063Z,35.20
2023-02-24T09:47:31.356Z,36.90
2023-02-24T09:52:42.319Z,38.10
2023-02-24T09:58:26.989Z,37.90
2023-02-24T10:03:42.418Z,35.20
2023-02-24T10:09:11.435Z,34.00
2023-02-24T10:14:19.585Z,34.30
2023-02-24T10:19:30.587Z,32.40
2023-02-24T10:24:41.358Z,34.00
2023-02-24T10:29:50.906Z,36.50
2023-02-24T10:34:53.359Z,35.80
2023-02-24T10:40:10.243Z,32.80
2023-02-24T10:45:26.367Z,30.20
2023-02-24T10:50:55.302Z,31.50
2023-02-24T10:56:17.723Z,29.30
2023-02-24T11:01:40.524Z,27.00
2023-02-24T11:06:52.578Z,27.20
2023-02-24T11:12:34.902Z,29.20
2023-02-24T11:17:38.346Z,28.70
2023-02-24T11:22:43.188Z,27.50
2023-02-24T11:27:46.531Z,27.10
2023-02-24T11:33:00.521Z,28.50
2023-02-24T11:38:16.104Z,27.10
2023-02-24T11:43:20.964Z,26.50
2023-02-24T11:48:34.162Z,30.90
2023-02-24T11:53:55.408Z,26.80
2023-02-24T11:59:07.525Z,28.30
2023-02-24T12:04:21.746Z,25.50
2023-02-24T12:09:30.219Z,29.70
2023-02-24T12:14:40.901Z,30.00
2023-02-24T12:20:05.141Z,30.90
2023-02-24T12:25:12.929Z,30.50
2023-02-24T12:30:47.351Z,30.50
2023-02-24T12:36:20.900Z,28.90
2023-02-24T12:41:39.295Z,29.80
2023-02-24T12:46:41.042Z,31.50
2023-02-24T12:52:00.864Z,31.40
2023-02-24T12:57:11.897Z,31.70
2023-02-24T13:02:57.700Z,31.20
2023-02-24T13:08:14.475Z,31.40
2023-02-24T13:13:46.440Z,29.80
2023-02-24T13:18:48.301Z,31.50
2023-02-24T13:23:58.148Z,31.50
2023-02-24T13:29:18.582Z,30.00
2023-02-24T13:34:32.980Z,31.60
2023-02-24T13:39:35.996Z,31.60
2023-02-24T13:45:02.999Z,32.60
2023-02-24T13:50:20.078Z,31.70
2023-02-24T13:55:46.969Z,12.10
2023-02-24T14:01:14.712Z,18.10
2023-02-24T14:06:25.297Z,29.90
2023-02-24T14:11:32.437Z,34.70
2023-02-24T14:16:39.868Z,44.30
2023-02-24T14:21:49.119Z,43.00
2023-02-24T14:26:56.551Z,41.50
2023-02-24T14:31:59.502Z,39.20
2023-02-24T14:37:03.990Z,35.90
2023-02-24T14:42:14.795Z,38.30
2023-02-24T14:47:19.018Z,33.40
2023-02-24T14:52:38.392Z,30.50
2023-02-24T14:57:45.246Z,32.40
2023-02-24T15:02:52.889Z,30.90
2023-02-24T15:07:54.688Z,29.60
2023-02-24T15:13:01.073Z,29.40
2023-02-24T15:18:25.781Z,35.90
2023-02-24T15:23:47.561Z,29.40
2023-02-24T15:28:56.454Z,29.40
2023-02-24T15:34:03.379Z,19.20
2023-02-24T15:39:15.695Z,26.20
2023-02-24T15:44:33.970Z,36.10
2023-02-24T15:49:35.677Z,29.70
2023-02-24T15:54:39.293Z,20.30
2023-02-24T15:59:41.190Z,27.40
2023-02-24T16:04:42.993Z,20.40
2023-02-24T16:09:46.922Z,27.30
2023-02-24T16:15:02.188Z,23.10
2023-02-24T16:20:08.602Z,32.40
2023-02-24T16:25:15.294Z,30.60
2023-02-24T16:30:22.461Z,26.20
2023-02-24T16:35:25.943Z,23.00
2023-02-24T16:40:30.950Z,13.50
2023-02-24T16:45:34.494Z,10.00
2023-02-24T16:50:39.508Z,10.00
2023-02-24T16:55:43.278Z,9.50
2023-02-24T17:00:48.007Z,10.20
2023-02-24T17:05:51.636Z,4.30
2023-02-24T17:10:54.230Z,6.00
2023-02-24T17:15:57.440Z,12.80
2023-02-24T17:20:59.719Z,8.60
2023-02-24T17:26:02.715Z,11.50
2023-02-24T17:31:05.525Z,10.90
2023-02-24T17:36:07.522Z,11.80
2023-02-24T17:41:09.912Z,11.60
2023-02-24T17:46:11.689Z,10.50
2023-02-24T17:51:20.036Z,10.80
2023-02-24T17:56:22.204Z,32.10
2023-02-24T18:01:26.113Z,39.80
2023-02-24T18:06:27.877Z,38.30
2023-02-24T18:11:29.635Z,48.20
2023-02-24T18:16:31.476Z,36.50
2023-02-24T18:21:33.374Z,40.20
2023-02-24T18:26:35.705Z,32.80
2023-02-24T18:31:37.669Z,39.70
2023-02-24T18:36:40.456Z,35.80
2023-02-24T18:41:42.462Z,39.70
2023-02-24T18:46:44.394Z,53.70
2023-02-24T18:51:48.886Z,104.90
2023-02-24T18:56:50.928Z,85.00
2023-02-24T19:01:53.998Z,40.00
2023-02-24T19:06:55.817Z,40.00
2023-02-24T19:11:57.584Z,43.30
2023-02-24T19:17:01.241Z,49.50
2023-02-24T19:22:03.024Z,73.50
2023-02-24T19:27:04.781Z,74.30
2023-02-24T19:32:06.654Z,109.00
2023-02-24T19:37:08.577Z,77.80
2023-02-24T19:42:10.391Z,52.80
2023-02-24T19:47:12.138Z,42.20
2023-02-24T19:52:14.078Z,39.00
2023-02-24T19:57:15.933Z,37.40
2023-02-24T20:02:17.761Z,35.60
2023-02-24T20:07:19.673Z,38.00
2023-02-24T20:12:21.573Z,39.70
2023-02-24T20:17:23.385Z,37.10
2023-02-24T20:22:25.129Z,38.60
2023-02-24T20:27:26.905Z,52.90
2023-02-24T20:32:28.746Z,81.90
2023-02-24T20:37:30.528Z,56.00
2023-02-24T20:42:32.356Z,46.60
2023-02-24T20:47:34.077Z,45.90
2023-02-24T20:52:37.660Z,36.60
2023-02-24T20:57:40.559Z,26.70
2023-02-24T21:02:42.808Z,23.40
2023-02-24T21:07:44.595Z,18.70
2023-02-24T21:12:47.369Z,25.30
2023-02-24T21:17:49.082Z,24.90
2023-02-24T21:22:52.506Z,25.10
2023-02-24T21:27:57.332Z,38.40
2023-02-24T21:32:59.100Z,38.30
2023-02-24T21:38:00.903Z,26.50
2023-02-24T21:43:04.512Z,44.40
2023-02-24T21:48:06.797Z,49.70
2023-02-24T21:53:08.786Z,31.60
2023-02-24T21:58:10.495Z,38.20
2023-02-24T22:03:12.581Z,26.80
2023-02-24T22:08:14.511Z,21.80
2023-02-24T22:13:22.786Z,17.70
2023-02-24T22:18:24.656Z,15.60
2023-02-24T22:23:26.721Z,8.80
2023-02-24T22:28:28.493Z,7.50
2023-02-24T22:33:32.310Z,8.90
2023-02-24T22:38:35.740Z,11.90
2023-02-24T22:43:37.699Z,12.90
2023-02-24T22:48:40.595Z,12.60
2023-02-24T22:53:46.673Z,11.70
2023-02-24T22:58:48.995Z,12.10
2023-02-24T23:03:51.711Z,10.80
2023-02-24T23:08:54.514Z,11.20
2023-02-24T23:13:58.979Z,12.50
2023-02-24T23:19:06.092Z,15.60
2023-02-24T23:24:11.087Z,31.70
2023-02-24T23:29:15.499Z,43.30
2023-02-24T23:34:18.887Z,45.80
2023-02-24T23:39:23.646Z,44.60
2023-02-24T23:44:25.776Z,44.50
2023-02-24T23:49:36.278Z,43.30
2023-02-24T23:54:41.036Z,44.70
2023-02-24T23:59:43.044Z,42.90
